createdAt,value
2023-05-06T00:00:54.028Z,93.35
2023-05-06T00:03:24.640Z,93.50
2023-05-06T00:05:55.760Z,93.65
2023-05-06T00:08:27.193Z,93.59
2023-05-06T00:10:57.701Z,93.69
2023-05-06T00:13:28.225Z,93.64
2023-05-06T00:15:58.881Z,93.78
2023-05-06T00:18:29.750Z,93.62
2023-05-06T00:21:00.353Z,93.49
2023-05-06T00:23:30.933Z,93.54
2023-05-06T00:26:01.813Z,93.61
2023-05-06T00:28:32.443Z,93.50
2023-05-06T00:31:03.287Z,93.54
2023-05-06T00:33:33.831Z,93.55
2023-05-06T00:36:05.090Z,93.45
2023-05-06T00:38:35.760Z,93.45
2023-05-06T00:41:06.622Z,93.56
2023-05-06T00:43:37.660Z,93.54
2023-05-06T00:46:10.633Z,93.58
2023-05-06T00:48:41.957Z,93.49
2023-05-06T00:51:12.822Z,93.44
2023-05-06T00:53:43.776Z,93.31
2023-05-06T00:56:15.238Z,93.27
2023-05-06T00:58:46.221Z,93.11
2023-05-06T01:01:17.482Z,93.10
2023-05-06T01:03:48.398Z,93.14
2023-05-06T01:06:27.674Z,93.22
2023-05-06T01:09:06.844Z,93.32
2023-05-06T01:11:42.798Z,93.36
2023-05-06T01:14:23.170Z,93.29
2023-05-06T01:16:59.475Z,93.11
2023-05-06T01:19:41.902Z,93.06
2023-05-06T01:22:14.188Z,93.20
2023-05-06T01:24:46.137Z,93.29
2023-05-06T01:27:18.272Z,93.36
2023-05-06T01:29:50.509Z,93.39
2023-05-06T01:32:34.078Z,93.09
2023-05-06T01:35:12.802Z,93.30
2023-05-06T01:37:49.335Z,93.44
2023-05-06T01:40:21.394Z,93.52
2023-05-06T01:42:52.136Z,93.57
2023-05-06T01:45:26.701Z,93.44
2023-05-06T01:47:58.501Z,93.38
2023-05-06T01:50:30.861Z,93.39
2023-05-06T01:53:02.449Z,93.38
2023-05-06T01:55:33.308Z,93.36
2023-05-06T01:58:03.934Z,93.36
2023-05-06T02:00:34.458Z,93.40
2023-05-06T02:03:05.107Z,93.23
2023-05-06T02:05:36.165Z,93.25
2023-05-06T02:08:06.736Z,93.17
2023-05-06T02:10:37.301Z,93.14
2023-05-06T02:13:08.295Z,93.04
2023-05-06T02:15:39.030Z,93.14
2023-05-06T02:18:09.602Z,93.13
2023-05-06T02:20:40.424Z,93.23
2023-05-06T02:23:11.722Z,93.18
2023-05-06T02:25:42.542Z,93.33
2023-05-06T02:28:13.050Z,93.26
2023-05-06T02:30:43.898Z,93.37
2023-05-06T02:33:14.426Z,93.36
2023-05-06T02:35:45.042Z,93.31
2023-05-06T02:38:15.747Z,93.31
2023-05-06T02:40:46.815Z,93.13
2023-05-06T02:43:17.327Z,93.01
2023-05-06T02:45:47.918Z,93.00
2023-05-06T02:48:18.476Z,92.99
2023-05-06T02:50:49.089Z,92.97
2023-05-06T02:53:19.745Z,93.05
2023-05-06T02:55:50.313Z,93.19
2023-05-06T02:58:21.244Z,93.22
2023-05-06T03:00:52.381Z,93.40
2023-05-06T03:03:25.869Z,93.46
2023-05-06T03:05:57.002Z,93.69
2023-05-06T03:08:27.611Z,93.75
2023-05-06T03:10:58.142Z,93.78
2023-05-06T03:13:28.823Z,93.85
2023-05-06T03:15:59.265Z,93.79
2023-05-06T03:18:30.140Z,93.66
2023-05-06T03:21:01.642Z,93.67
2023-05-06T03:23:32.196Z,93.69
2023-05-06T03:26:02.986Z,93.72
2023-05-06T03:28:33.649Z,93.72
2023-05-06T03:31:04.206Z,93.70
2023-05-06T03:33:34.782Z,93.69
2023-05-06T03:36:05.765Z,93.68
2023-05-06T03:38:36.226Z,93.60
2023-05-06T03:41:06.816Z,93.57
2023-05-06T03:43:37.380Z,93.49
2023-05-06T03:46:08.121Z,93.54
2023-05-06T03:48:38.617Z,93.44
2023-05-06T03:51:09.630Z,93.44
2023-05-06T03:53:41.093Z,93.36
2023-05-06T03:56:11.874Z,93.37
2023-05-06T03:58:42.447Z,93.42
2023-05-06T04:01:13.021Z,93.24
2023-05-06T04:03:44.149Z,93.06
2023-05-06T04:06:15.197Z,92.86
2023-05-06T04:08:45.674Z,92.72
2023-05-06T04:11:16.488Z,92.43
2023-05-06T04:13:46.995Z,92.27
2023-05-06T04:16:17.597Z,92.18
2023-05-06T04:18:49.473Z,92.06
2023-05-06T04:21:20.075Z,91.99
2023-05-06T04:23:50.945Z,91.87
2023-05-06T04:26:21.681Z,91.81
2023-05-06T04:28:52.850Z,92.07
2023-05-06T04:31:24.215Z,92.18
2023-05-06T04:33:54.762Z,92.17
2023-05-06T04:36:25.325Z,92.05
2023-05-06T04:38:57.111Z,92.09
2023-05-06T04:41:29.382Z,92.05
2023-05-06T04:44:00.199Z,91.90
2023-05-06T04:46:30.613Z,91.93
2023-05-06T04:49:01.422Z,92.04
2023-05-06T04:51:31.999Z,91.99
2023-05-06T04:54:02.541Z,92.03
2023-05-06T04:56:33.428Z,91.99
2023-05-06T04:59:04.174Z,91.98
2023-05-06T05:01:35.035Z,92.01
2023-05-06T05:04:05.708Z,91.90
2023-05-06T05:06:36.319Z,91.84
2023-05-06T05:09:06.872Z,91.79
2023-05-06T05:11:39.464Z,91.72
2023-05-06T05:14:09.947Z,91.57
2023-05-06T05:16:40.582Z,91.37
2023-05-06T05:19:11.130Z,91.19
2023-05-06T05:21:41.647Z,91.08
2023-05-06T05:24:12.242Z,90.90
2023-05-06T05:26:42.813Z,90.59
2023-05-06T05:29:13.357Z,90.62
2023-05-06T05:31:44.517Z,90.72
2023-05-06T05:34:15.118Z,90.45
2023-05-06T05:36:45.883Z,90.36
2023-05-06T05:39:16.617Z,90.14
2023-05-06T05:41:47.397Z,90.30
2023-05-06T05:44:18.422Z,90.15
2023-05-06T05:46:49.267Z,90.16
2023-05-06T05:49:20.124Z,90.17
2023-05-06T05:51:50.632Z,90.06
2023-05-06T05:54:21.186Z,90.08
2023-05-06T05:56:51.825Z,90.10
2023-05-06T05:59:22.358Z,90.11
2023-05-06T06:01:53.218Z,90.09
2023-05-06T06:04:24.180Z,90.24
2023-05-06T06:06:54.801Z,90.48
2023-05-06T06:09:25.298Z,90.66
2023-05-06T06:11:56.304Z,90.86
2023-05-06T06:14:27.005Z,90.98
2023-05-06T06:16:57.893Z,90.60
2023-05-06T06:19:28.573Z,90.40
2023-05-06T06:21:59.121Z,90.17
2023-05-06T06:24:29.604Z,90.21
2023-05-06T06:27:00.067Z,90.36
2023-05-06T06:29:30.781Z,90.55
2023-05-06T06:32:01.517Z,90.52
2023-05-06T06:34:32.550Z,90.66
2023-05-06T06:37:02.998Z,90.64
2023-05-06T06:39:33.491Z,90.53
2023-05-06T06:42:04.887Z,90.51
2023-05-06T06:44:36.124Z,90.63
2023-05-06T06:47:06.644Z,90.64
2023-05-06T06:49:37.162Z,90.40
2023-05-06T06:52:07.722Z,90.48
2023-05-06T06:54:39.982Z,90.26
2023-05-06T06:57:10.530Z,90.43
2023-05-06T06:59:41.067Z,90.45
2023-05-06T07:02:11.923Z,90.28
2023-05-06T07:04:43.055Z,90.15
2023-05-06T07:07:13.871Z,90.25
2023-05-06T07:09:44.525Z,90.34
2023-05-06T07:12:15.880Z,90.45
2023-05-06T07:14:46.413Z,90.56
2023-05-06T07:17:17.234Z,90.66
2023-05-06T07:19:47.788Z,90.85
2023-05-06T07:22:18.537Z,90.50
2023-05-06T07:24:49.386Z,90.17
2023-05-06T07:27:20.252Z,90.16
2023-05-06T07:29:51.407Z,90.27
2023-05-06T07:32:22.505Z,90.28
2023-05-06T07:34:53.872Z,90.20
2023-05-06T07:37:24.664Z,90.23
2023-05-06T07:39:55.746Z,90.01
2023-05-06T07:42:26.435Z,89.66
2023-05-06T07:44:57.085Z,89.55
2023-05-06T07:47:32.348Z,89.19
2023-05-06T07:50:05.019Z,88.93
2023-05-06T07:52:35.726Z,88.42
2023-05-06T07:55:09.552Z,87.96
2023-05-06T07:57:41.591Z,87.73
2023-05-06T08:00:13.805Z,87.34
2023-05-06T08:02:45.038Z,87.27
2023-05-06T08:05:17.345Z,87.09
2023-05-06T08:07:50.154Z,86.93
2023-05-06T08:10:22.200Z,86.56
2023-05-06T08:12:53.029Z,85.83
2023-05-06T08:15:23.660Z,84.79
2023-05-06T08:17:56.014Z,84.23
2023-05-06T08:20:27.710Z,84.57
2023-05-06T08:23:01.011Z,84.56
2023-05-06T08:25:31.608Z,84.13
2023-05-06T08:28:02.400Z,84.00
2023-05-06T08:30:33.044Z,84.58
2023-05-06T08:33:03.625Z,85.25
2023-05-06T08:35:34.433Z,85.09
2023-05-06T08:38:04.914Z,84.94
2023-05-06T08:40:35.546Z,85.10
2023-05-06T08:43:08.218Z,84.49
2023-05-06T08:45:39.288Z,83.28
2023-05-06T08:48:10.438Z,82.62
2023-05-06T08:50:44.161Z,82.55
2023-05-06T08:53:14.968Z,82.77
2023-05-06T08:55:47.073Z,83.32
2023-05-06T08:58:19.791Z,83.94
2023-05-06T09:00:51.565Z,83.79
2023-05-06T09:03:22.175Z,82.74
2023-05-06T09:05:54.365Z,81.34
2023-05-06T09:08:24.937Z,81.19
2023-05-06T09:10:55.649Z,80.53
2023-05-06T09:13:26.181Z,80.21
2023-05-06T09:15:56.999Z,81.04
2023-05-06T09:18:27.629Z,80.59
2023-05-06T09:21:00.599Z,79.69
2023-05-06T09:23:31.995Z,79.16
2023-05-06T09:26:03.153Z,79.14
2023-05-06T09:28:35.197Z,78.82
2023-05-06T09:31:07.807Z,78.67
2023-05-06T09:33:39.584Z,78.69
2023-05-06T09:36:13.376Z,78.71
2023-05-06T09:38:44.151Z,78.66
2023-05-06T09:41:15.327Z,78.37
2023-05-06T09:43:49.379Z,78.72
2023-05-06T09:46:20.753Z,78.86
2023-05-06T09:48:53.804Z,78.42
2023-05-06T09:51:24.252Z,78.12
2023-05-06T09:53:57.072Z,77.73
2023-05-06T09:56:27.964Z,77.34
2023-05-06T09:59:01.436Z,77.42
2023-05-06T10:01:37.148Z,78.26
2023-05-06T10:04:19.569Z,78.18
2023-05-06T10:06:52.254Z,76.87
2023-05-06T10:09:24.927Z,77.64
2023-05-06T10:11:56.953Z,76.56
2023-05-06T10:14:28.004Z,76.70
2023-05-06T10:17:00.359Z,76.12
2023-05-06T10:19:31.318Z,74.96
2023-05-06T10:22:18.022Z,75.14
2023-05-06T10:25:00.888Z,74.13
2023-05-06T10:27:36.297Z,73.77
2023-05-06T10:30:10.843Z,75.55
2023-05-06T10:32:45.651Z,75.28
2023-05-06T10:35:27.246Z,75.89
2023-05-06T10:37:59.006Z,76.09
2023-05-06T10:40:29.675Z,74.89
2023-05-06T10:43:23.591Z,75.65
2023-05-06T10:46:05.447Z,76.70
2023-05-06T10:48:37.070Z,75.24
2023-05-06T10:51:27.307Z,74.64
2023-05-06T10:54:06.760Z,74.50
2023-05-06T10:56:39.165Z,74.36
2023-05-06T10:59:11.348Z,73.91
2023-05-06T11:01:43.449Z,74.30
2023-05-06T11:04:15.032Z,73.31
2023-05-06T11:06:47.731Z,71.37
2023-05-06T11:09:23.286Z,71.15
2023-05-06T11:12:01.761Z,71.51
2023-05-06T11:14:35.374Z,71.92
2023-05-06T11:17:08.139Z,73.09
2023-05-06T11:19:39.987Z,73.91
2023-05-06T11:22:30.440Z,73.53
2023-05-06T11:25:01.394Z,71.95
2023-05-06T11:27:33.168Z,70.83
2023-05-06T11:30:04.193Z,71.45
2023-05-06T11:32:36.209Z,72.07
2023-05-06T11:35:08.740Z,71.14
2023-05-06T11:37:39.712Z,70.99
2023-05-06T11:40:17.844Z,71.44
2023-05-06T11:44:01.035Z,72.14
2023-05-06T11:46:34.154Z,73.05
2023-05-06T11:49:04.861Z,72.29
2023-05-06T11:51:35.387Z,71.77
2023-05-06T11:54:11.371Z,72.48
2023-05-06T11:56:49.892Z,72.62
2023-05-06T11:59:28.678Z,71.67
2023-05-06T12:02:01.675Z,72.13
2023-05-06T12:04:39.879Z,71.70
2023-05-06T12:07:11.996Z,71.46
2023-05-06T12:09:44.969Z,70.32
2023-05-06T12:12:19.118Z,69.69
2023-05-06T12:14:50.428Z,69.46
2023-05-06T12:17:21.644Z,68.66
2023-05-06T12:19:53.051Z,67.73
2023-05-06T12:22:25.672Z,67.07
2023-05-06T12:24:56.511Z,68.29
2023-05-06T12:27:37.084Z,68.46
2023-05-06T12:30:11.229Z,69.13
2023-05-06T12:33:02.231Z,69.11
2023-05-06T12:35:33.771Z,69.29
2023-05-06T12:38:12.503Z,69.78
2023-05-06T12:40:44.279Z,69.51
2023-05-06T12:43:15.378Z,69.00
2023-05-06T12:46:03.391Z,67.53
2023-05-06T12:48:34.149Z,67.33
2023-05-06T12:51:21.414Z,67.36
2023-05-06T12:53:52.123Z,67.79
2023-05-06T12:56:23.312Z,67.74
2023-05-06T12:59:02.137Z,69.30
2023-05-06T13:01:32.757Z,68.95
2023-05-06T13:04:03.298Z,69.08
2023-05-06T13:06:34.151Z,68.88
2023-05-06T13:09:05.749Z,67.56
2023-05-06T13:11:36.456Z,66.70
2023-05-06T13:14:06.966Z,66.43
2023-05-06T13:16:38.426Z,66.77
2023-05-06T13:19:15.128Z,65.53
2023-05-06T13:21:52.077Z,65.94
2023-05-06T13:24:22.636Z,64.50
2023-05-06T13:26:53.510Z,64.62
2023-05-06T13:29:24.491Z,64.32
2023-05-06T13:31:56.517Z,63.90
2023-05-06T13:34:27.199Z,63.84
2023-05-06T13:36:58.854Z,64.01
2023-05-06T13:39:29.481Z,64.54
2023-05-06T13:42:00.179Z,64.22
2023-05-06T13:44:33.694Z,63.23
2023-05-06T13:47:04.306Z,62.57
2023-05-06T13:49:35.194Z,61.86
2023-05-06T13:52:08.178Z,62.93
2023-05-06T13:54:39.451Z,62.93
2023-05-06T13:57:10.035Z,61.76
2023-05-06T13:59:41.455Z,61.91
2023-05-06T14:02:12.703Z,62.29
2023-05-06T14:04:43.827Z,61.86
2023-05-06T14:07:14.466Z,61.96
2023-05-06T14:09:45.757Z,62.94
2023-05-06T14:12:16.358Z,62.82
2023-05-06T14:14:47.243Z,63.62
2023-05-06T14:17:17.714Z,63.43
2023-05-06T14:19:48.341Z,64.00
2023-05-06T14:22:19.128Z,64.19
2023-05-06T14:24:50.184Z,63.87
2023-05-06T14:27:20.890Z,64.32
2023-05-06T14:29:52.146Z,64.30
2023-05-06T14:32:22.820Z,64.44
2023-05-06T14:34:53.558Z,64.84
2023-05-06T14:37:24.700Z,65.18
2023-05-06T14:39:55.460Z,65.59
2023-05-06T14:42:26.032Z,65.56
2023-05-06T14:44:56.906Z,66.11
2023-05-06T14:47:27.803Z,65.77
2023-05-06T14:50:01.634Z,66.03
2023-05-06T14:52:32.648Z,65.75
2023-05-06T14:55:03.495Z,66.30
2023-05-06T14:57:34.089Z,67.09
2023-05-06T15:00:08.803Z,66.69
2023-05-06T15:02:40.794Z,65.92
2023-05-06T15:05:13.525Z,66.49
2023-05-06T15:07:44.656Z,66.43
2023-05-06T15:10:15.326Z,65.78
2023-05-06T15:12:45.921Z,65.15
2023-05-06T15:15:16.595Z,65.07
2023-05-06T15:17:47.630Z,64.95
2023-05-06T15:20:18.236Z,64.80
2023-05-06T15:22:49.101Z,65.67
2023-05-06T15:25:33.318Z,65.67
2023-05-06T15:28:05.938Z,65.57
2023-05-06T15:30:37.661Z,65.86
2023-05-06T15:33:09.957Z,66.37
2023-05-06T15:35:40.796Z,66.46
2023-05-06T15:38:11.714Z,65.11
2023-05-06T15:40:42.610Z,64.83
2023-05-06T15:43:17.820Z,65.44
2023-05-06T15:45:54.080Z,66.07
2023-05-06T15:48:25.258Z,66.10
2023-05-06T15:50:56.020Z,66.71
2023-05-06T15:53:28.858Z,66.45
2023-05-06T15:56:13.220Z,66.35
2023-05-06T15:58:49.796Z,66.78
2023-05-06T16:01:23.771Z,67.29
2023-05-06T16:04:00.422Z,67.15
2023-05-06T16:06:31.534Z,66.31
2023-05-06T16:09:02.025Z,66.91
2023-05-06T16:11:32.890Z,67.10
2023-05-06T16:14:03.376Z,66.75
2023-05-06T16:16:33.968Z,67.01
2023-05-06T16:19:05.176Z,67.09
2023-05-06T16:21:35.715Z,66.84
2023-05-06T16:24:06.554Z,67.01
2023-05-06T16:26:37.080Z,67.53
2023-05-06T16:29:07.680Z,67.31
2023-05-06T16:31:38.544Z,67.02
2023-05-06T16:34:09.196Z,67.34
2023-05-06T16:36:39.621Z,67.18
2023-05-06T16:39:11.986Z,67.30
2023-05-06T16:41:42.801Z,67.60
2023-05-06T16:44:13.284Z,67.76
2023-05-06T16:46:44.237Z,68.44
2023-05-06T16:49:15.068Z,68.31
2023-05-06T16:51:45.897Z,68.82
2023-05-06T16:54:16.659Z,68.46
2023-05-06T16:56:52.200Z,68.85
2023-05-06T16:59:23.557Z,69.29
2023-05-06T17:01:54.150Z,69.84
2023-05-06T17:04:25.980Z,69.79
2023-05-06T17:06:56.540Z,70.17
2023-05-06T17:09:27.150Z,70.61
2023-05-06T17:11:57.815Z,70.49
2023-05-06T17:14:28.374Z,69.87
2023-05-06T17:17:02.222Z,69.62
2023-05-06T17:19:33.121Z,69.68
2023-05-06T17:22:03.694Z,69.57
2023-05-06T17:24:35.978Z,69.97
2023-05-06T17:27:07.296Z,69.88
2023-05-06T17:29:38.176Z,69.99
2023-05-06T17:32:09.058Z,70.32
2023-05-06T17:34:39.704Z,70.40
2023-05-06T17:37:10.577Z,70.66
2023-05-06T17:39:43.123Z,70.99
2023-05-06T17:42:13.742Z,71.42
2023-05-06T17:44:44.456Z,71.61
2023-05-06T17:47:17.823Z,71.95
2023-05-06T17:49:48.378Z,71.89
2023-05-06T17:52:18.993Z,71.89
2023-05-06T17:55:05.832Z,72.00
2023-05-06T17:57:43.751Z,72.13
2023-05-06T18:00:17.391Z,72.39
2023-05-06T18:02:48.482Z,72.47
2023-05-06T18:05:19.388Z,72.68
2023-05-06T18:07:49.974Z,72.56
2023-05-06T18:10:21.085Z,72.65
2023-05-06T18:12:51.990Z,72.92
2023-05-06T18:15:23.035Z,73.13
2023-05-06T18:17:53.756Z,73.53
2023-05-06T18:20:24.364Z,73.61
2023-05-06T18:22:55.026Z,73.56
2023-05-06T18:25:25.962Z,73.64
2023-05-06T18:27:57.790Z,73.89
2023-05-06T18:30:28.334Z,73.95
2023-05-06T18:32:58.859Z,74.12
2023-05-06T18:35:29.520Z,74.17
2023-05-06T18:38:00.269Z,74.27
2023-05-06T18:40:31.184Z,74.62
2023-05-06T18:43:01.898Z,74.84
2023-05-06T18:45:32.396Z,75.08
2023-05-06T18:48:02.960Z,75.32
2023-05-06T18:50:33.948Z,75.55
2023-05-06T18:53:04.758Z,75.69
2023-05-06T18:55:35.395Z,76.12
2023-05-06T18:58:06.640Z,76.27
2023-05-06T19:00:37.192Z,76.49
2023-05-06T19:03:07.943Z,76.53
2023-05-06T19:05:38.935Z,76.74
2023-05-06T19:08:10.400Z,76.83
2023-05-06T19:10:41.029Z,76.75
2023-05-06T19:13:12.186Z,76.83
2023-05-06T19:15:43.234Z,76.73
2023-05-06T19:18:14.291Z,76.85
2023-05-06T19:20:45.635Z,76.87
2023-05-06T19:23:16.497Z,76.77
2023-05-06T19:25:47.029Z,76.41
2023-05-06T19:28:17.888Z,76.28
2023-05-06T19:30:48.788Z,76.22
2023-05-06T19:33:19.413Z,76.46
2023-05-06T19:35:49.951Z,76.63
2023-05-06T19:38:21.356Z,76.98
2023-05-06T19:40:52.486Z,77.24
2023-05-06T19:43:23.465Z,77.42
2023-05-06T19:45:54.028Z,77.60
2023-05-06T19:48:25.045Z,77.77
2023-05-06T19:50:55.829Z,77.73
2023-05-06T19:53:26.534Z,77.89
2023-05-06T19:55:59.108Z,77.76
2023-05-06T19:58:29.901Z,77.82
2023-05-06T20:01:00.410Z,77.78
2023-05-06T20:03:32.248Z,77.66
2023-05-06T20:06:03.476Z,77.50
2023-05-06T20:08:35.216Z,77.23
2023-05-06T20:11:05.923Z,77.18
2023-05-06T20:13:36.871Z,77.03
2023-05-06T20:16:07.838Z,77.18
2023-05-06T20:18:40.655Z,77.39
2023-05-06T20:21:11.216Z,77.56
2023-05-06T20:23:41.775Z,77.66
2023-05-06T20:26:12.691Z,77.73
2023-05-06T20:28:43.468Z,77.84
2023-05-06T20:31:14.382Z,77.92
2023-05-06T20:33:44.968Z,78.01
2023-05-06T20:36:15.886Z,78.13
2023-05-06T20:38:48.984Z,78.18
2023-05-06T20:41:19.632Z,78.14
2023-05-06T20:43:52.821Z,78.11
2023-05-06T20:46:23.969Z,78.21
2023-05-06T20:48:54.776Z,78.31
2023-05-06T20:51:25.749Z,78.36
2023-05-06T20:53:58.928Z,78.51
2023-05-06T20:56:31.417Z,78.72
2023-05-06T20:59:02.408Z,78.84
2023-05-06T21:01:33.489Z,78.84
2023-05-06T21:04:05.539Z,78.76
2023-05-06T21:06:36.199Z,78.90
2023-05-06T21:09:07.013Z,79.02
2023-05-06T21:11:37.619Z,79.23
2023-05-06T21:14:08.315Z,79.31
2023-05-06T21:16:39.908Z,79.42
2023-05-06T21:19:10.511Z,79.51
2023-05-06T21:21:41.561Z,79.56
2023-05-06T21:24:13.084Z,79.54
2023-05-06T21:26:44.160Z,79.55
2023-05-06T21:29:14.709Z,79.51
2023-05-06T21:31:45.687Z,79.41
2023-05-06T21:34:16.200Z,79.38
2023-05-06T21:36:46.866Z,79.30
2023-05-06T21:39:17.595Z,79.41
2023-05-06T21:41:48.590Z,79.12
2023-05-06T21:44:19.520Z,78.98
2023-05-06T21:46:50.205Z,78.77
2023-05-06T21:49:22.301Z,78.69
2023-05-06T21:51:53.068Z,78.63
2023-05-06T21:54:24.596Z,78.38
2023-05-06T21:56:55.656Z,78.39
2023-05-06T21:59:26.245Z,78.37
2023-05-06T22:01:57.764Z,78.70
2023-05-06T22:04:28.953Z,79.02
2023-05-06T22:06:59.828Z,79.28
2023-05-06T22:09:30.473Z,79.43
2023-05-06T22:12:01.536Z,79.66
2023-05-06T22:14:40.569Z,79.67
2023-05-06T22:17:12.386Z,79.68
2023-05-06T22:19:43.066Z,79.90
2023-05-06T22:22:14.275Z,79.81
2023-05-06T22:24:44.973Z,79.73
2023-05-06T22:27:15.864Z,79.76
2023-05-06T22:29:46.881Z,79.77
2023-05-06T22:32:17.421Z,79.61
2023-05-06T22:34:49.082Z,79.48
2023-05-06T22:37:20.649Z,79.61
2023-05-06T22:39:53.036Z,79.59
2023-05-06T22:42:23.629Z,79.28
2023-05-06T22:44:54.120Z,79.15
2023-05-06T22:47:24.729Z,78.95
2023-05-06T22:49:55.495Z,78.88
2023-05-06T22:52:26.279Z,79.14
2023-05-06T22:54:56.840Z,79.17
2023-05-06T22:57:27.761Z,79.23
2023-05-06T22:59:58.397Z,79.17
2023-05-06T23:02:29.540Z,79.09
2023-05-06T23:05:00.166Z,79.01
2023-05-06T23:07:31.300Z,79.02
2023-05-06T23:10:01.904Z,78.91
2023-05-06T23:12:36.151Z,79.08
2023-05-06T23:15:08.574Z,79.27
2023-05-06T23:17:39.306Z,79.60
2023-05-06T23:20:12.865Z,80.01
2023-05-06T23:22:43.623Z,80.04
2023-05-06T23:25:15.212Z,80.13
2023-05-06T23:27:46.210Z,80.30
2023-05-06T23:30:17.507Z,80.68
2023-05-06T23:32:48.328Z,80.81
2023-05-06T23:35:18.913Z,80.73
2023-05-06T23:37:49.845Z,80.74
2023-05-06T23:40:20.877Z,80.77
2023-05-06T23:42:51.471Z,80.76
2023-05-06T23:45:22.071Z,80.71
2023-05-06T23:47:53.275Z,80.71
2023-05-06T23:50:24.059Z,80.54
2023-05-06T23:52:54.716Z,80.39
2023-05-06T23:55:26.318Z,80.40
2023-05-06T23:57:57.206Z,80.47
